Flight Track Log - Related Links

Times and Time Zones

All times are in EDT time to prevent confusion due to time zone crossing. See the UAL1402 flight status page for this flight to view local times or setup timezone preferences in your user account.


Time Position Orientation Groundspeed Altitude Reporting Facility
EDT Latitude Longitude Course Direction KTS MPH feet Rate Location/Type
Tue 07:41:34 AM 41.9667 -87.9833 346° North 192 221 3,500  Level Chicago TRACON
Tue 07:42:28 AM 41.9667 -88.0667 270° West 243 280 5,000 1,150 Climbing Chicago TRACON
Tue 07:43:00 AM 42.2451 -87.9904 350° North  Level FlightAware Approximate
Tue 07:43:34 AM 41.9494 -88.1422 253° West 236 272 5,800  Level Chicago Center
Tue 07:44:00 AM 42.3396 -88.0141 350° North  Level FlightAware Approximate
Tue 07:44:36 AM 41.9989 -88.2106 314° West 272 313 10,300  Level Chicago Center
Tue 07:45:00 AM 42.4309 -88.0528 352° North  Level FlightAware Approximate
Tue 07:45:37 AM 42.0578 -88.1233 48° Northeast 310 357 13,000  Level Chicago Center
Tue 07:46:00 AM 42.5220 -88.0851 346° North  Level FlightAware Approximate
Tue 07:46:39 AM 42.1242 -88.0625 34° Northeast 306 352 13,700  Level Chicago Center
Tue 07:47:40 AM 42.2031 -88.0533 North 287 330 16,800 3,073 Climbing Chicago Center
Tue 07:48:42 AM 42.2831 -88.0461 North 288 331 20,000 2,468 Climbing Chicago Center
Tue 07:49:44 AM 42.3797 -88.0447 North 301 346 21,900 1,610 Climbing Chicago Center
Tue 07:50:45 AM 42.4731 -88.0792 345° North 341 392 23,300 1,951 Climbing Chicago Center
Tue 07:51:47 AM 42.5689 -88.1075 348° North 351 404 25,900 2,341 Climbing Chicago Center
Tue 07:52:48 AM 42.6664 -88.1386 347° North 357 411 28,100 1,951 Climbing Chicago Center
Tue 07:53:50 AM 42.7683 -88.1725 346° North 372 428 29,900 1,935 Climbing Chicago Center
Tue 07:54:52 AM 42.8450 -88.2681 318° Northwest 371 427 32,100 1,805 Climbing Chicago Center
Tue 07:55:53 AM 42.9192 -88.3672 316° Northwest 369 425 33,600 1,902 Climbing Chicago Center
Tue 07:56:55 AM 43.0039 -88.4819 315° West 366 421 36,000 1,161 Climbing Chicago Center
Tue 07:57:57 AM 43.0742 -88.5772 315° West 356 410 36,000  Level Chicago Center
Tue 07:58:59 AM 43.1461 -88.6725 316° Northwest 356 410 36,000  Level Chicago Center
Tue 08:00:00 AM 43.2161 -88.7689 315° West 355 409 36,000  Level Chicago Center
Tue 08:01:02 AM 43.2867 -88.8650 315° West 355 409 36,000  Level Chicago Center
Tue 08:02:04 AM 43.3561 -88.9603 315° West 351 404 36,000  Level Chicago Center
Tue 08:03:06 AM 43.4261 -89.0564 315° West 352 405 36,000  Level Chicago Center
Tue 08:04:08 AM 43.4958 -89.1503 316° Northwest 351 404 36,000  Level Chicago Center
Tue 08:05:09 AM 43.5761 -89.2617 315° West 350 403 36,000  Level Chicago Center
Tue 08:06:11 AM 43.6458 -89.3575 315° West 352 405 36,000  Level Chicago Center
Tue 08:06:48 AM 43.6808 -89.4039 316° Northwest 351 404 36,000  Level Minneapolis Center
Tue 08:07:49 AM 43.7481 -89.5019 314° West 351 404 36,000  Level Minneapolis Center
Tue 08:08:50 AM 43.8283 -89.6133 315° West 349 402 36,000  Level Minneapolis Center
Tue 08:09:52 AM 43.8978 -89.7097 315° West 352 405 36,000 -341 Level Minneapolis Center
Tue 08:10:53 AM 43.9664 -89.8058 315° West 350 403 35,300 -780 Descending Minneapolis Center
Tue 08:11:55 AM 44.0361 -89.9053 314° West 357 411 34,400 -634 Descending Minneapolis Center
Tue 08:12:56 AM 44.1014 -90.0075 312° West 354 407 34,000 -195 Descending Minneapolis Center
Tue 08:13:58 AM 44.1586 -90.1183 306° West 352 405 34,000  Level Minneapolis Center
Tue 08:14:59 AM 44.2003 -90.2428 295° West 355 409 34,000  Level Minneapolis Center
Tue 08:16:01 AM 44.2431 -90.3694 295° West 358 412 34,000  Level Minneapolis Center
Tue 08:17:02 AM 44.2925 -90.5172 295° West 361 415 34,000  Level Minneapolis Center
Tue 08:18:04 AM 44.3397 -90.6403 298° West 360 414 34,000  Level Minneapolis Center
Tue 08:19:05 AM 44.3792 -90.7694 293° West 360 414 34,000 -98 Level Minneapolis Center
Tue 08:20:07 AM 44.4239 -90.8978 296° West 365 420 33,800 -585 Descending Minneapolis Center
Tue 08:21:08 AM 44.4650 -91.0286 294° West 362 417 32,800 -976 Descending Minneapolis Center
Tue 08:22:10 AM 44.5086 -91.1581 295° West 368 423 31,800 -927 Descending Minneapolis Center
Tue 08:23:11 AM 44.5517 -91.2900 295° West 372 428 30,900 -1,415 Descending Minneapolis Center
Tue 08:24:13 AM 44.5953 -91.4222 295° West 375 432 28,900 -2,371 Descending Minneapolis Center
Tue 08:25:15 AM 44.6389 -91.5539 295° West 374 430 26,000 -2,976 Descending Minneapolis Center
Tue 08:26:16 AM 44.6875 -91.7064 294° West 364 419 22,800 -2,780 Descending Minneapolis Center
Tue 08:27:18 AM 44.7275 -91.8294 295° West 353 406 20,300 -2,488 Descending Minneapolis Center
Tue 08:28:19 AM 44.7664 -91.9511 294° West 345 397 17,700 -2,537 Descending Minneapolis Center
Tue 08:29:21 AM 44.8039 -92.0703 294° West 336 387 15,100 -2,419 Descending Minneapolis Center
Tue 08:30:23 AM 44.8411 -92.1867 294° West 328 377 12,700 -2,293 Descending Minneapolis Center
Tue 08:31:24 AM 44.8761 -92.2983 294° West 313 360 10,400 -1,328 Descending Minneapolis Center
Tue 08:32:25 AM 44.8986 -92.3900 289° West 311 358 10,000 -634 Descending Minneapolis Center
Tue 08:33:27 AM 44.8347 -92.5256 236° Southwest 289 333 9,100 -1,306 Descending Minneapolis Center
Tue 08:34:29 AM 44.7956 -92.6194 240° Southwest 283 326 7,300 -1,024 Descending Minneapolis Center
Tue 08:35:30 AM 44.7858 -92.7239 263° West 267 307 7,000 -683 Descending Minneapolis Center
Tue 08:36:32 AM 44.7744 -92.8192 260° West 250 288 5,900 -1,103 Descending Minneapolis Center
Tue 08:37:46 AM 44.7642 -92.9131 261° West 245 282 4,500 -1,059 Descending Minneapolis Center
Tue 08:38:48 AM 44.7914 -93.0136 291° West 232 267 3,500 -968 Descending Minneapolis Center

Login

Don't have an account? Register now (free) for customized features, flight alerts, and more!